createdAt,value
2019-02-06T00:00:45.007Z,96783.61
2019-02-06T00:03:33.649Z,96780.92
2019-02-06T00:06:22.979Z,96782.57
2019-02-06T00:09:14.214Z,96783.87
2019-02-06T00:12:03.474Z,96776.38
2019-02-06T00:14:52.386Z,96774.98
2019-02-06T00:17:41.165Z,96780.25
2019-02-06T00:20:29.672Z,96778.60
2019-02-06T00:23:19.619Z,96783.47
2019-02-06T00:26:08.643Z,96778.11
2019-02-06T00:28:57.317Z,96774.34
2019-02-06T00:31:46.186Z,96773.47
2019-02-06T00:34:35.430Z,96771.50
2019-02-06T00:37:24.334Z,96775.77
2019-02-06T00:40:13.587Z,96771.88
2019-02-06T00:43:02.551Z,96768.20
2019-02-06T00:45:50.790Z,96766.55
2019-02-06T00:48:41.710Z,96771.30
2019-02-06T00:51:30.698Z,96777.41
2019-02-06T00:54:21.057Z,96770.44
2019-02-06T00:57:10.529Z,96768.51
2019-02-06T00:59:59.837Z,96776.11
2019-02-06T01:02:48.685Z,96779.99
2019-02-06T01:05:38.928Z,96781.22
2019-02-06T01:08:27.554Z,96775.69
2019-02-06T01:11:15.704Z,96771.76
2019-02-06T01:14:05.435Z,96771.76
2019-02-06T01:16:54.097Z,96771.55
2019-02-06T01:19:43.077Z,96764.81
2019-02-06T01:22:32.038Z,96767.97
2019-02-06T01:25:20.336Z,96766.03
2019-02-06T01:28:09.077Z,96764.53
2019-02-06T01:31:12.999Z,96765.91
2019-02-06T01:34:01.345Z,96769.20
2019-02-06T01:36:49.639Z,96763.84
2019-02-06T01:39:37.987Z,96760.65
2019-02-06T01:42:27.189Z,96760.65
2019-02-06T01:45:17.707Z,96766.39
2019-02-06T01:48:06.355Z,96769.96
2019-02-06T01:50:55.446Z,96762.81
2019-02-06T01:53:44.164Z,96763.41
2019-02-06T01:56:33.528Z,96764.50
2019-02-06T01:59:22.497Z,96770.47
2019-02-06T02:02:10.830Z,96753.13
2019-02-06T02:05:00.693Z,96743.80
2019-02-06T02:07:50.956Z,96745.00
2019-02-06T02:10:40.300Z,96745.99
2019-02-06T02:13:28.453Z,96751.72
2019-02-06T02:16:17.338Z,96742.35
2019-02-06T02:19:06.148Z,96744.89
2019-02-06T02:21:54.613Z,96736.17
2019-02-06T02:24:43.928Z,96733.53
2019-02-06T02:27:32.905Z,96736.06
2019-02-06T02:30:28.517Z,96731.54
2019-02-06T02:33:17.845Z,96734.52
2019-02-06T02:36:16.048Z,96736.34
2019-02-06T02:38:57.422Z,96732.88
2019-02-06T02:41:46.532Z,96728.64
2019-02-06T02:44:34.959Z,96728.64
2019-02-06T02:47:23.651Z,96729.96
2019-02-06T02:50:12.288Z,96725.02
2019-02-06T02:53:00.701Z,96734.78
2019-02-06T02:55:49.605Z,96723.23
2019-02-06T02:58:38.449Z,96728.02
2019-02-06T03:01:39.537Z,96725.77
2019-02-06T03:04:31.129Z,96723.84
2019-02-06T03:07:19.882Z,96721.20
2019-02-06T03:10:09.594Z,96718.23
2019-02-06T03:12:58.029Z,96720.70
2019-02-06T03:15:47.667Z,96721.05
2019-02-06T03:18:36.495Z,96723.97
2019-02-06T03:21:26.440Z,96721.62
2019-02-06T03:24:15.670Z,96726.44
2019-02-06T03:27:04.778Z,96717.44
2019-02-06T03:29:52.670Z,96716.41
2019-02-06T03:32:41.637Z,96714.32
2019-02-06T03:35:30.096Z,96707.42
2019-02-06T03:38:18.867Z,96708.12
2019-02-06T03:41:07.797Z,96708.27
2019-02-06T03:43:56.628Z,96712.01
2019-02-06T03:46:46.668Z,96710.55
2019-02-06T03:49:35.959Z,96710.15
2019-02-06T03:52:24.733Z,96712.89
2019-02-06T03:55:14.213Z,96713.22
2019-02-06T03:58:02.329Z,96714.30
2019-02-06T04:00:51.305Z,96713.20
2019-02-06T04:03:39.883Z,96716.93
2019-02-06T04:06:28.606Z,96716.73
2019-02-06T04:09:16.590Z,96717.36
2019-02-06T04:12:06.626Z,96717.34
2019-02-06T04:14:54.878Z,96714.70
2019-02-06T04:17:43.823Z,96717.05
2019-02-06T04:20:32.759Z,96714.20
2019-02-06T04:23:21.775Z,96704.21
2019-02-06T04:26:10.639Z,96700.84
2019-02-06T04:28:59.628Z,96706.80
2019-02-06T04:31:47.724Z,96705.61
2019-02-06T04:34:53.656Z,96705.77
2019-02-06T04:37:43.328Z,96703.93
2019-02-06T04:40:33.016Z,96708.95
2019-02-06T04:43:22.007Z,96707.42
2019-02-06T04:46:10.875Z,96712.82
2019-02-06T04:48:59.496Z,96711.30
2019-02-06T04:51:48.435Z,96718.30
2019-02-06T04:54:38.569Z,96724.80
2019-02-06T04:57:27.210Z,96719.17
2019-02-06T05:00:25.990Z,96716.28
2019-02-06T05:03:15.107Z,96731.96
2019-02-06T05:06:04.513Z,96728.66
2019-02-06T05:08:54.546Z,96731.86
2019-02-06T05:11:43.284Z,96731.25
2019-02-06T05:14:32.165Z,96727.84
2019-02-06T05:17:20.799Z,96738.55
2019-02-06T05:20:31.284Z,96737.61
2019-02-06T05:23:19.905Z,96735.19
2019-02-06T05:26:08.185Z,96733.91
2019-02-06T05:28:57.683Z,96727.55
2019-02-06T05:31:51.930Z,96723.95
2019-02-06T05:34:40.935Z,96731.21
2019-02-06T05:37:32.304Z,96728.64
2019-02-06T05:40:20.915Z,96727.70
2019-02-06T05:43:10.838Z,96732.21
2019-02-06T05:45:59.166Z,96727.41
2019-02-06T05:48:50.646Z,96732.22
2019-02-06T05:51:39.300Z,96729.06
2019-02-06T05:54:28.511Z,96725.50
2019-02-06T05:57:20.754Z,96731.59
2019-02-06T06:00:13.070Z,96725.48
2019-02-06T06:03:01.574Z,96723.15
2019-02-06T06:05:50.326Z,96726.66
2019-02-06T06:08:39.176Z,96726.34
2019-02-06T06:11:27.946Z,96726.70
2019-02-06T06:14:17.504Z,96718.64
2019-02-06T06:17:06.707Z,96724.92
2019-02-06T06:19:55.589Z,96725.12
2019-02-06T06:22:45.502Z,96722.95
2019-02-06T06:25:35.292Z,96723.66
2019-02-06T06:28:26.007Z,96731.88
2019-02-06T06:31:17.363Z,96730.75
2019-02-06T06:34:05.372Z,96730.55
2019-02-06T06:36:56.842Z,96727.53
2019-02-06T06:39:46.643Z,96729.66
2019-02-06T06:42:35.165Z,96731.13
2019-02-06T06:45:24.193Z,96732.58
2019-02-06T06:48:13.140Z,96732.91
2019-02-06T06:51:02.826Z,96728.27
2019-02-06T06:53:52.187Z,96730.33
2019-02-06T06:56:41.166Z,96730.31
2019-02-06T06:59:29.508Z,96740.82
2019-02-06T07:02:18.535Z,96743.17
2019-02-06T07:05:07.611Z,96743.30
2019-02-06T07:08:09.050Z,96735.38
2019-02-06T07:10:48.383Z,96733.36
2019-02-06T07:13:37.902Z,96735.55
2019-02-06T07:16:27.108Z,96737.09
2019-02-06T07:19:15.754Z,96742.94
2019-02-06T07:22:04.205Z,96743.53
2019-02-06T07:24:53.110Z,96741.63
2019-02-06T07:27:46.121Z,96738.41
2019-02-06T07:30:36.831Z,96738.34
2019-02-06T07:33:25.443Z,96738.48
2019-02-06T07:36:14.751Z,96736.05
2019-02-06T07:39:06.529Z,96736.44
2019-02-06T07:41:55.410Z,96738.50
2019-02-06T07:44:44.004Z,96738.33
2019-02-06T07:47:33.121Z,96735.09
2019-02-06T07:50:26.500Z,96734.14
2019-02-06T07:53:16.395Z,96731.37
2019-02-06T07:56:05.689Z,96729.83
2019-02-06T07:58:53.851Z,96737.03
2019-02-06T08:01:42.382Z,96745.09
2019-02-06T08:04:31.017Z,96742.22
2019-02-06T08:07:19.661Z,96744.41
2019-02-06T08:10:11.814Z,96745.84
2019-02-06T08:13:01.015Z,96738.71
2019-02-06T08:15:50.947Z,96742.70
2019-02-06T08:18:40.604Z,96739.16
2019-02-06T08:21:29.731Z,96741.13
2019-02-06T08:24:18.322Z,96741.13
2019-02-06T08:27:07.187Z,96743.86
2019-02-06T08:29:56.219Z,96750.48
2019-02-06T08:32:44.131Z,96744.83
2019-02-06T08:35:33.351Z,96740.08
2019-02-06T08:38:22.125Z,96736.65
2019-02-06T08:41:11.361Z,96725.25
2019-02-06T08:44:01.880Z,96725.25
2019-02-06T08:46:50.319Z,96729.50
2019-02-06T08:49:40.049Z,96734.08
2019-02-06T08:52:28.620Z,96734.08
2019-02-06T08:55:19.977Z,96735.80
2019-02-06T08:58:08.680Z,96723.17
2019-02-06T09:00:57.014Z,96721.16
2019-02-06T09:03:45.574Z,96722.59
2019-02-06T09:06:34.548Z,96722.59
2019-02-06T09:09:22.922Z,96724.61
2019-02-06T09:12:12.333Z,96734.56
2019-02-06T09:15:01.522Z,96732.06
2019-02-06T09:17:49.689Z,96732.13
2019-02-06T09:20:38.210Z,96726.56
2019-02-06T09:23:28.240Z,96722.92
2019-02-06T09:26:17.548Z,96724.69
2019-02-06T09:29:06.819Z,96724.69
2019-02-06T09:31:59.317Z,96722.36
2019-02-06T09:34:47.277Z,96720.88
2019-02-06T09:37:36.331Z,96719.06
2019-02-06T09:40:26.790Z,96732.23
2019-02-06T09:43:15.462Z,96732.23
2019-02-06T09:46:04.212Z,96713.22
2019-02-06T09:48:55.515Z,96713.22
2019-02-06T09:51:46.902Z,96712.03
2019-02-06T09:54:35.627Z,96701.06
2019-02-06T09:57:24.489Z,96701.06
2019-02-06T10:00:19.809Z,96711.87
2019-02-06T10:03:10.730Z,96715.00
2019-02-06T10:05:59.794Z,96723.91
2019-02-06T10:08:48.061Z,96723.91
2019-02-06T10:11:36.806Z,96711.89
2019-02-06T10:14:25.628Z,96721.48
2019-02-06T10:17:14.439Z,96724.98
2019-02-06T10:20:03.632Z,96715.78
2019-02-06T10:22:51.868Z,96714.61
2019-02-06T10:25:40.124Z,96714.61
2019-02-06T10:28:29.432Z,96712.62
2019-02-06T10:31:18.939Z,96704.33
2019-02-06T10:34:07.950Z,96707.31
2019-02-06T10:36:56.525Z,96694.27
2019-02-06T10:39:45.041Z,96694.48
2019-02-06T10:42:34.064Z,96699.86
2019-02-06T10:45:23.991Z,96701.14
2019-02-06T10:48:13.920Z,96688.97
2019-02-06T10:51:02.929Z,96685.02
2019-02-06T10:53:52.318Z,96685.02
2019-02-06T10:56:42.000Z,96683.03
2019-02-06T10:59:30.541Z,96662.27
2019-02-06T11:02:18.599Z,96657.13
2019-02-06T11:05:07.348Z,96661.80
2019-02-06T11:07:55.533Z,96661.80
2019-02-06T11:10:43.962Z,96645.80
2019-02-06T11:13:32.231Z,96642.27
2019-02-06T11:16:20.490Z,96643.49
2019-02-06T11:19:09.247Z,96637.63
2019-02-06T11:21:58.165Z,96626.43
2019-02-06T11:24:46.651Z,96617.77
2019-02-06T11:27:36.167Z,96621.07
2019-02-06T11:30:26.468Z,96621.07
2019-02-06T11:33:15.482Z,96614.96
2019-02-06T11:36:04.482Z,96611.02
2019-02-06T11:38:54.662Z,96611.02
2019-02-06T11:41:43.807Z,96608.97
2019-02-06T11:44:32.702Z,96568.08
2019-02-06T11:47:22.586Z,96609.30
2019-02-06T11:50:14.861Z,96609.30
2019-02-06T11:53:03.725Z,96606.48
2019-02-06T11:55:53.938Z,96604.81
2019-02-06T11:58:42.172Z,96598.09
2019-02-06T12:01:34.931Z,96594.80
2019-02-06T12:04:23.622Z,96580.91
2019-02-06T12:07:11.989Z,96575.27
2019-02-06T12:10:09.782Z,96570.98
2019-02-06T12:12:56.142Z,96566.48
2019-02-06T12:15:44.934Z,96559.01
2019-02-06T12:18:35.729Z,96559.01
2019-02-06T12:21:24.653Z,96568.52
2019-02-06T12:24:13.175Z,96557.73
2019-02-06T12:27:01.978Z,96559.20
2019-02-06T12:29:50.504Z,96558.03
2019-02-06T12:32:39.273Z,96541.91
2019-02-06T12:35:27.840Z,96541.86
2019-02-06T12:38:16.771Z,96529.94
2019-02-06T12:41:06.119Z,96526.53
2019-02-06T12:43:55.738Z,96522.02
2019-02-06T12:46:43.958Z,96521.70
2019-02-06T12:49:32.213Z,96515.39
2019-02-06T12:52:20.456Z,96510.63
2019-02-06T12:55:11.578Z,96509.91
2019-02-06T12:58:00.628Z,96505.25
2019-02-06T13:00:49.786Z,96503.97
2019-02-06T13:03:38.955Z,96505.93
2019-02-06T13:06:28.512Z,96509.22
2019-02-06T13:09:16.813Z,96502.80
2019-02-06T13:12:06.061Z,96500.86
2019-02-06T13:14:55.276Z,96503.91
2019-02-06T13:17:44.169Z,96497.39
2019-02-06T13:20:33.575Z,96498.14
2019-02-06T13:23:22.233Z,96495.03
2019-02-06T13:26:10.621Z,96488.99
2019-02-06T13:28:59.387Z,96491.78
2019-02-06T13:31:48.307Z,96488.77
2019-02-06T13:34:37.073Z,96485.35
2019-02-06T13:37:26.192Z,96481.01
2019-02-06T13:40:16.785Z,96484.57
2019-02-06T13:43:05.899Z,96473.66
2019-02-06T13:45:54.883Z,96471.94
2019-02-06T13:48:43.847Z,96474.95
2019-02-06T13:51:34.075Z,96469.98
2019-02-06T13:54:22.932Z,96467.00
2019-02-06T13:57:11.983Z,96479.53
2019-02-06T14:00:01.228Z,96469.77
2019-02-06T14:02:50.401Z,96473.16
2019-02-06T14:05:39.487Z,96464.13
2019-02-06T14:08:29.073Z,96469.48
2019-02-06T14:11:18.446Z,96454.09
2019-02-06T14:14:06.934Z,96454.09
2019-02-06T14:16:56.152Z,96444.77
2019-02-06T14:19:45.503Z,96450.98
2019-02-06T14:22:33.828Z,96432.18
2019-02-06T14:25:27.249Z,96436.49
2019-02-06T14:28:50.023Z,96437.47
2019-02-06T14:32:02.172Z,96430.76
2019-02-06T14:35:24.877Z,96430.76
2019-02-06T14:39:12.746Z,96435.19
2019-02-06T14:42:44.956Z,96435.13
2019-02-06T14:46:10.230Z,96440.08
2019-02-06T14:49:13.540Z,96440.08
2019-02-06T14:53:11.459Z,96410.66
2019-02-06T14:56:23.688Z,96410.66
2019-02-06T14:59:55.201Z,96414.50
2019-02-06T15:03:08.516Z,96410.45
2019-02-06T15:06:24.735Z,96409.19
2019-02-06T15:09:47.731Z,96398.92
2019-02-06T15:13:14.985Z,96404.84
2019-02-06T15:16:26.648Z,96399.11
2019-02-06T15:19:49.057Z,96394.56
2019-02-06T15:23:05.254Z,96395.10
2019-02-06T15:26:04.615Z,96388.78
2019-02-06T15:29:30.633Z,96395.55
2019-02-06T15:33:10.120Z,96384.14
2019-02-06T15:36:20.628Z,96383.73
2019-02-06T15:40:01.018Z,96380.03
2019-02-06T15:43:35.491Z,96367.70
2019-02-06T15:46:59.032Z,96362.42
2019-02-06T15:49:55.270Z,96362.42
2019-02-06T15:53:11.111Z,96350.36
2019-02-06T15:56:31.441Z,96350.36
2019-02-06T15:59:45.587Z,96347.16
2019-02-06T16:02:54.662Z,96347.16
2019-02-06T16:06:20.313Z,96339.02
2019-02-06T16:09:54.689Z,96327.52
2019-02-06T16:13:08.535Z,96345.80
2019-02-06T16:16:33.240Z,96341.14
2019-02-06T16:19:52.447Z,96341.14
2019-02-06T16:23:30.908Z,96342.07
2019-02-06T16:27:14.342Z,96331.55
2019-02-06T16:30:17.509Z,96331.55
2019-02-06T16:33:37.942Z,96338.59
2019-02-06T16:36:43.857Z,96338.92
2019-02-06T16:40:00.515Z,96341.41
2019-02-06T16:43:46.043Z,96334.22
2019-02-06T16:47:07.299Z,96331.82
2019-02-06T16:50:40.221Z,96325.10
2019-02-06T16:57:34.083Z,96327.64
2019-02-06T17:01:03.834Z,96312.56
2019-02-06T17:04:21.453Z,96315.32
2019-02-06T17:08:19.081Z,96304.10
2019-02-06T17:11:46.197Z,96306.52
2019-02-06T17:15:02.701Z,96307.52
2019-02-06T17:19:09.520Z,96300.34
2019-02-06T17:22:44.577Z,96302.80
2019-02-06T17:26:25.084Z,96304.81
2019-02-06T17:29:56.916Z,96300.75
2019-02-06T17:33:04.860Z,96312.03
2019-02-06T17:36:24.019Z,96312.69
2019-02-06T17:39:24.160Z,96303.50
2019-02-06T17:42:41.331Z,96301.86
2019-02-06T17:45:51.944Z,96302.76
2019-02-06T17:49:11.936Z,96303.53
2019-02-06T17:52:33.591Z,96305.84
2019-02-06T17:55:26.019Z,96297.19
2019-02-06T17:58:14.348Z,96298.01
2019-02-06T18:01:10.896Z,96297.92
2019-02-06T18:04:18.811Z,96297.92
2019-02-06T18:07:07.688Z,96290.55
2019-02-06T18:09:57.207Z,96270.38
2019-02-06T18:12:46.480Z,96270.38
2019-02-06T18:15:35.163Z,96271.41
2019-02-06T18:18:24.249Z,96271.41
2019-02-06T18:21:12.816Z,96273.08
2019-02-06T18:24:01.980Z,96275.09
2019-02-06T18:26:52.894Z,96269.72
2019-02-06T18:29:42.355Z,96269.43
2019-02-06T18:32:31.014Z,96271.18
2019-02-06T18:35:21.101Z,96264.35
2019-02-06T18:38:10.633Z,96260.58
2019-02-06T18:40:59.308Z,96255.53
2019-02-06T18:43:48.540Z,96252.70
2019-02-06T18:46:36.873Z,96254.56
2019-02-06T18:49:25.684Z,96247.22
2019-02-06T18:52:20.518Z,96240.64
2019-02-06T18:55:05.839Z,96240.64
2019-02-06T18:57:55.014Z,96238.34
2019-02-06T19:00:44.113Z,96235.05
2019-02-06T19:03:39.201Z,96234.37
2019-02-06T19:06:29.034Z,96229.88
2019-02-06T19:09:18.346Z,96219.51
2019-02-06T19:12:07.319Z,96220.91
2019-02-06T19:14:58.779Z,96220.91
2019-02-06T19:17:46.557Z,96214.84
2019-02-06T19:20:35.763Z,96209.81
2019-02-06T19:23:24.499Z,96205.95
2019-02-06T19:26:14.042Z,96206.78
2019-02-06T19:29:03.109Z,96205.59
2019-02-06T19:31:51.315Z,96205.55
2019-02-06T19:34:40.533Z,96203.58
2019-02-06T19:37:29.256Z,96196.33
2019-02-06T19:40:18.138Z,96200.00
2019-02-06T19:43:11.792Z,96199.72
2019-02-06T19:46:00.801Z,96194.41
2019-02-06T19:48:55.491Z,96193.61
2019-02-06T19:51:43.837Z,96202.09
2019-02-06T19:54:32.777Z,96191.86
2019-02-06T19:57:21.237Z,96189.11
2019-02-06T20:00:12.354Z,96182.55
2019-02-06T20:03:20.206Z,96183.37
2019-02-06T20:06:28.506Z,96184.08
2019-02-06T20:09:18.397Z,96181.81
2019-02-06T20:12:08.511Z,96180.55
2019-02-06T20:14:57.331Z,96179.88
2019-02-06T20:17:46.826Z,96179.64
2019-02-06T20:20:35.891Z,96173.98
2019-02-06T20:23:24.783Z,96173.83
2019-02-06T20:26:13.102Z,96168.69
2019-02-06T20:29:03.145Z,96166.73
2019-02-06T20:31:52.246Z,96170.03
2019-02-06T20:34:41.432Z,96165.94
2019-02-06T20:37:33.718Z,96161.77
2019-02-06T20:40:29.175Z,96158.00
2019-02-06T20:43:22.127Z,96162.72
2019-02-06T20:46:09.264Z,96158.33
2019-02-06T20:48:57.418Z,96156.90
2019-02-06T20:51:45.759Z,96157.20
2019-02-06T20:54:35.396Z,96156.59
2019-02-06T20:57:24.273Z,96155.66
2019-02-06T21:00:19.451Z,96149.77
2019-02-06T21:03:07.800Z,96148.73
2019-02-06T21:05:58.883Z,96138.95
2019-02-06T21:08:48.018Z,96134.31
2019-02-06T21:11:36.446Z,96132.73
2019-02-06T21:14:24.982Z,96127.65
2019-02-06T21:17:14.172Z,96122.20
2019-02-06T21:20:03.654Z,96121.38
2019-02-06T21:22:52.907Z,96118.63
2019-02-06T21:25:46.921Z,96111.23
2019-02-06T21:28:36.273Z,96117.73
2019-02-06T21:31:25.006Z,96106.44
2019-02-06T21:34:14.292Z,96110.69
2019-02-06T21:37:03.771Z,96104.11
2019-02-06T21:43:06.712Z,96089.48
2019-02-06T21:45:55.756Z,96091.20
2019-02-06T21:48:44.729Z,96086.50
2019-02-06T21:51:33.334Z,96080.48
2019-02-06T21:54:22.932Z,96082.56
2019-02-06T21:57:11.803Z,96084.33
2019-02-06T22:00:00.482Z,96083.23
2019-02-06T22:02:49.165Z,96085.47
2019-02-06T22:05:38.127Z,96089.73
2019-02-06T22:08:26.721Z,96084.08
2019-02-06T22:11:15.020Z,96085.72
2019-02-06T22:14:03.850Z,96088.67
2019-02-06T22:16:52.502Z,96093.09
2019-02-06T22:19:40.626Z,96088.55
2019-02-06T22:22:30.877Z,96078.61
2019-02-06T22:25:20.797Z,96083.87
2019-02-06T22:28:10.474Z,96076.47
2019-02-06T22:31:00.725Z,96066.73
2019-02-06T22:33:51.028Z,96065.70
2019-02-06T22:36:40.802Z,96067.47
2019-02-06T22:39:30.320Z,96057.77
2019-02-06T22:42:19.869Z,96060.13
2019-02-06T22:45:30.731Z,96053.80
2019-02-06T22:48:22.261Z,96046.37
2019-02-06T22:51:12.212Z,96043.75
2019-02-06T22:54:01.887Z,96039.13
2019-02-06T22:56:51.667Z,96041.80
2019-02-06T23:02:51.124Z,96044.47
2019-02-06T23:05:40.917Z,96040.50
2019-02-06T23:08:30.796Z,96033.17
2019-02-06T23:11:23.112Z,96027.73
2019-02-06T23:14:18.039Z,96028.45
2019-02-06T23:17:05.620Z,96016.77
2019-02-06T23:19:55.146Z,96019.84
2019-02-06T23:22:45.309Z,96020.20
2019-02-06T23:25:34.825Z,96017.05
2019-02-06T23:28:25.097Z,96013.32
2019-02-06T23:31:14.954Z,96012.80
2019-02-06T23:34:05.421Z,96007.52
2019-02-06T23:36:55.485Z,96006.98
2019-02-06T23:39:45.628Z,96005.99
2019-02-06T23:42:35.695Z,96001.66
2019-02-06T23:45:25.224Z,95998.27
2019-02-06T23:48:15.692Z,95992.42
2019-02-06T23:51:45.088Z,95988.13
2019-02-06T23:54:35.085Z,95980.08
2019-02-06T23:57:24.911Z,95972.37
